Time;durP1;ratioP1;P1;durP2;ratioP2;P2;SDS_P1;SDS_P2;PMS_P1;PMS_P2;Temp;Humidity;BMP_temperature;BMP_pressure;BME280_temperature;BME280_humidity;BME280_pressure;Samples;Min_cycle;Max_cycle;Signal;HPM_P1;HPM_P2
2023/09/28 00:02:07;;;;;;;;;;;;;;;;;;5093879;28;19928;-72
2023/09/28 00:04:34;;;;;;;;;;;;;;;;;;5092423;28;19970;-73
2023/09/28 00:07:00;;;;;;;;;;;;;;;;;;5092858;28;19928;-73
2023/09/28 00:09:27;;;;;;;;;;;;;;;;;;5092682;28;19924;-73
2023/09/28 00:11:53;;;;;;;;;;;;;;;;;;5093996;28;19977;-73
2023/09/28 00:14:20;;;;;;;;;;;;;;;;;;5092393;28;19927;-73
2023/09/28 00:16:46;;;;;;;;;;;;;;;;;;5092921;28;19963;-73
2023/09/28 00:19:14;;;;;;;;;;;;;;;;;;5092959;28;20282;-73
2023/09/28 00:21:40;;;;;;;;;;;;;;;;;;5090341;28;19928;-72
2023/09/28 00:24:09;;;;;;;;;;;;;;;;;;5084365;28;20277;-73
2023/09/28 00:26:36;;;;;;;;;;;;;;;;;;5093556;28;19924;-73
2023/09/28 00:29:03;;;;;;;;;;;;;;;;;;5092906;28;20461;-73
2023/09/28 00:31:31;;;;;;;;;;;;;;;;;;5093268;28;19928;-73
2023/09/28 00:33:59;;;;;;;;;;;;;;;;;;5089953;28;19963;-73
2023/09/28 00:36:25;;;;;;;;;;;;;;;;;;5092782;28;19928;-72
2023/09/28 00:38:52;;;;;;;;;;;;;;;;;;5091490;28;19931;-72
2023/09/28 00:41:19;;;;;;;;;;;;;;;;;;5091789;28;19981;-72
2023/09/28 00:43:46;;;;;;;;;;;;;;;;;;5093188;28;19924;-72
2023/09/28 00:46:12;;;;;;;;;;;;;;;;;;5092245;28;19928;-72
2023/09/28 00:48:39;;;;;;;;;;;;;;;;;;5091689;28;20334;-72
2023/09/28 00:51:06;;;;;;;;;;;;;;;;;;5092724;28;19924;-72
2023/09/28 00:53:33;;;;;;;;;;;;;;;;;;5092709;28;19928;-72
2023/09/28 00:56:00;;;;;;;;;;;;;;;;;;5089775;28;19968;-72
2023/09/28 00:58:27;;;;;;;;;;;;;;;;;;5090673;28;19943;-72
2023/09/28 01:00:53;;;;;;;;;;;;;;;;;;5091317;28;19931;-73
2023/09/28 01:03:20;;;;;;;;;;;;;;;;;;5092804;28;20365;-72
2023/09/28 01:05:48;;;;;;;;;;;;;;;;;;5090952;28;19964;-72
2023/09/28 01:08:18;;;;;;;;;;;;;;;;;;5091683;28;19974;-72
2023/09/28 01:10:44;;;;;;;;;;;;;;;;;;5091411;28;20026;-73
2023/09/28 01:13:12;;;;;;;;;;;;;;;;;;5089948;28;19970;-72
2023/09/28 01:15:38;;;;;;;;;;;;;;;;;;5090359;28;19932;-72
2023/09/28 01:18:06;;;;;;;;;;;;;;;;;;5091236;28;20437;-72
2023/09/28 01:20:35;;;;;;;;;;;;;;;;;;5092015;28;20688;-72
2023/09/28 01:23:02;;;;;;;;;;;;;;;;;;5092085;28;19924;-72
2023/09/28 01:25:28;;;;;;;;;;;;;;;;;;5090794;28;20014;-72
2023/09/28 01:27:55;;;;;;;;;;;;;;;;;;5091120;28;19978;-71
2023/09/28 01:30:22;;;;;;;;;;;;;;;;;;5088474;28;19924;-72
2023/09/28 01:32:49;;;;;;;;;;;;;;;;;;5087693;28;19924;-72
2023/09/28 01:35:16;;;;;;;;;;;;;;;;;;5091503;28;19967;-72
2023/09/28 01:37:43;;;;;;;;;;;;;;;;;;5090667;28;19924;-72
2023/09/28 01:40:09;;;;;;;;;;;;;;;;;;5090357;28;19932;-72
2023/09/28 01:42:36;;;;;;;;;;;;;;;;;;5091790;28;19932;-72
2023/09/28 01:45:03;;;;;;;;;;;;;;;;;;5091136;28;19982;-72
2023/09/28 01:47:30;;;;;;;;;;;;;;;;;;5089983;28;20014;-72
2023/09/28 01:49:56;;;;;;;;;;;;;;;;;;5091263;28;19932;-72
2023/09/28 01:52:23;;;;;;;;;;;;;;;;;;5091785;28;19924;-72
2023/09/28 01:54:49;;;;;;;;;;;;;;;;;;5091080;28;20020;-72
2023/09/28 01:57:16;;;;;;;;;;;;;;;;;;5090027;28;20466;-72
2023/09/28 01:59:42;;;;;;;;;;;;;;;;;;5088129;28;19974;-72
2023/09/28 02:02:10;;;;;;;;;;;;;;;;;;5085211;28;19924;-72
2023/09/28 02:04:36;;;;;;;;;;;;;;;;;;5091740;28;19924;-72
2023/09/28 02:07:04;;;;;;;;;;;;;;;;;;5090185;28;19924;-72
2023/09/28 02:09:30;;;;;;;;;;;;;;;;;;5090994;28;19968;-73
2023/09/28 02:11:57;;;;;;;;;;;;;;;;;;5090587;28;20020;-73
2023/09/28 02:14:23;;;;;;;;;;;;;;;;;;5090498;28;19924;-72
2023/09/28 02:16:50;;;;;;;;;;;;;;;;;;5090516;28;19924;-72
2023/09/28 02:19:16;;;;;;;;;;;;;;;;;;5090428;28;19924;-72
2023/09/28 02:21:43;;;;;;;;;;;;;;;;;;5089216;28;20019;-73
2023/09/28 02:24:09;;;;;;;;;;;;;;;;;;5084430;28;19970;-73
2023/09/28 02:26:36;;;;;;;;;;;;;;;;;;5088637;28;19970;-73
2023/09/28 02:29:02;;;;;;;;;;;;;;;;;;5087169;28;19928;-72
2023/09/28 02:31:31;;;;;;;;;;;;;;;;;;5089797;28;19924;-73
2023/09/28 02:33:57;;;;;;;;;;;;;;;;;;5090902;28;19930;-73
2023/09/28 02:36:24;;;;;;;;;;;;;;;;;;5090680;28;20310;-72
2023/09/28 02:38:50;;;;;;;;;;;;;;;;;;5091756;28;19965;-73
2023/09/28 02:41:17;;;;;;;;;;;;;;;;;;5094177;28;19924;-73
2023/09/28 02:43:44;;;;;;;;;;;;;;;;;;5094664;28;19993;-72
2023/09/28 02:46:10;;;;;;;;;;;;;;;;;;5081191;28;19925;-72
2023/09/28 02:48:37;;;;;;;;;;;;;;;;;;5091655;28;19924;-73
2023/09/28 02:51:04;;;;;;;;;;;;;;;;;;5094860;28;19928;-73
2023/09/28 02:53:31;;;;;;;;;;;;;;;;;;5094341;28;19977;-72
2023/09/28 02:55:57;;;;;;;;;;;;;;;;;;5092634;28;19942;-73
2023/09/28 02:58:24;;;;;;;;;;;;;;;;;;5094282;28;19936;-73
2023/09/28 03:00:51;;;;;;;;;;;;;;;;;;5093984;28;19924;-72
2023/09/28 03:03:17;;;;;;;;;;;;;;;;;;5094181;28;19928;-72
2023/09/28 03:05:45;;;;;;;;;;;;;;;;;;5094634;28;19924;-73
2023/09/28 03:08:12;;;;;;;;;;;;;;;;;;5094327;28;19928;-72
2023/09/28 03:10:39;;;;;;;;;;;;;;;;;;5094703;28;19930;-73
2023/09/28 03:13:06;;;;;;;;;;;;;;;;;;5093519;28;19970;-72
2023/09/28 03:15:32;;;;;;;;;;;;;;;;;;5098114;28;20330;-72
2023/09/28 03:17:59;;;;;;;;;;;;;;;;;;5097395;28;19923;-72
2023/09/28 03:20:26;;;;;;;;;;;;;;;;;;5096940;28;19924;-72
2023/09/28 03:22:53;;;;;;;;;;;;;;;;;;5088982;28;19993;-73
2023/09/28 03:25:21;;;;;;;;;;;;;;;;;;5094368;28;19928;-72
2023/09/28 03:27:48;;;;;;;;;;;;;;;;;;5093711;28;20019;-72
2023/09/28 03:30:14;;;;;;;;;;;;;;;;;;5092036;28;19967;-72
2023/09/28 03:32:41;;;;;;;;;;;;;;;;;;5092871;28;19931;-72
2023/09/28 03:35:08;;;;;;;;;;;;;;;;;;5092933;28;19974;-72
2023/09/28 03:37:35;;;;;;;;;;;;;;;;;;5094050;28;19924;-72
2023/09/28 03:40:09;;;;;;;;;;;;;;;;;;5093118;28;20423;-72
2023/09/28 03:42:36;;;;;;;;;;;;;;;;;;5088192;28;20021;-72
2023/09/28 03:45:04;;;;;;;;;;;;;;;;;;5086425;28;19985;-72
2023/09/28 03:47:31;;;;;;;;;;;;;;;;;;5092826;28;20405;-73
2023/09/28 03:49:58;;;;;;;;;;;;;;;;;;5091201;28;20347;-72
2023/09/28 03:52:25;;;;;;;;;;;;;;;;;;5092108;28;19924;-72
2023/09/28 03:54:52;;;;;;;;;;;;;;;;;;5094256;28;19924;-72
2023/09/28 03:57:19;;;;;;;;;;;;;;;;;;5093015;28;19971;-73
2023/09/28 03:59:46;;;;;;;;;;;;;;;;;;5093670;28;20337;-73
2023/09/28 04:02:13;;;;;;;;;;;;;;;;;;5093009;28;19928;-73
2023/09/28 04:04:40;;;;;;;;;;;;;;;;;;5091401;28;19924;-72
2023/09/28 04:07:08;;;;;;;;;;;;;;;;;;5093366;28;19924;-72
2023/09/28 04:09:35;;;;;;;;;;;;;;;;;;5094090;28;19924;-73
2023/09/28 04:12:02;;;;;;;;;;;;;;;;;;5093003;28;19928;-73
2023/09/28 04:14:29;;;;;;;;;;;;;;;;;;5093413;28;20349;-73
2023/09/28 04:16:56;;;;;;;;;;;;;;;;;;5092602;28;19970;-71
2023/09/28 04:19:23;;;;;;;;;;;;;;;;;;5093520;28;19993;-72
2023/09/28 04:21:50;;;;;;;;;;;;;;;;;;5092486;28;19932;-72
2023/09/28 04:24:17;;;;;;;;;;;;;;;;;;5093166;28;19924;-71
2023/09/28 04:26:44;;;;;;;;;;;;;;;;;;5091655;28;19939;-71
2023/09/28 04:29:11;;;;;;;;;;;;;;;;;;5092305;28;20382;-72
2023/09/28 04:31:40;;;;;;;;;;;;;;;;;;5091828;28;19932;-71
2023/09/28 04:34:07;;;;;;;;;;;;;;;;;;5093015;28;20380;-71
2023/09/28 04:36:37;;;;;;;;;;;;;;;;;;5092767;28;19943;-72
2023/09/28 04:39:05;;;;;;;;;;;;;;;;;;5088754;28;19970;-73
2023/09/28 04:41:32;;;;;;;;;;;;;;;;;;5087655;28;19939;-72
2023/09/28 04:43:59;;;;;;;;;;;;;;;;;;5091892;28;19968;-72
2023/09/28 04:46:27;;;;;;;;;;;;;;;;;;5091717;28;19969;-72
2023/09/28 04:48:54;;;;;;;;;;;;;;;;;;5079034;28;19924;-72
2023/09/28 04:51:22;;;;;;;;;;;;;;;;;;5089622;28;20444;-72
2023/09/28 04:53:49;;;;;;;;;;;;;;;;;;5090226;28;19924;-72
2023/09/28 04:56:16;;;;;;;;;;;;;;;;;;5087187;28;19924;-72
2023/09/28 04:58:43;;;;;;;;;;;;;;;;;;5092582;28;19931;-72
2023/09/28 05:01:10;;;;;;;;;;;;;;;;;;5092525;28;19924;-72
2023/09/28 05:03:37;;;;;;;;;;;;;;;;;;5092037;28;20018;-72
2023/09/28 05:06:04;;;;;;;;;;;;;;;;;;5092422;28;19924;-72
2023/09/28 05:08:31;;;;;;;;;;;;;;;;;;5091441;28;20314;-72
2023/09/28 05:10:58;;;;;;;;;;;;;;;;;;5090577;28;20020;-72
2023/09/28 05:13:25;;;;;;;;;;;;;;;;;;5083533;28;19925;-72
2023/09/28 05:15:51;;;;;;;;;;;;;;;;;;5088483;28;19928;-71
2023/09/28 05:18:18;;;;;;;;;;;;;;;;;;5092884;28;19993;-71
2023/09/28 05:20:45;;;;;;;;;;;;;;;;;;5091791;28;20020;-70
2023/09/28 05:23:12;;;;;;;;;;;;;;;;;;5091542;28;19924;-73
2023/09/28 05:25:39;;;;;;;;;;;;;;;;;;5090621;28;19928;-73
2023/09/28 05:28:06;;;;;;;;;;;;;;;;;;5091870;28;20351;-70
2023/09/28 05:30:33;;;;;;;;;;;;;;;;;;5086449;28;20047;-70
2023/09/28 05:33:02;;;;;;;;;;;;;;;;;;5071684;28;19929;-70
2023/09/28 05:35:29;;;;;;;;;;;;;;;;;;5071391;28;19970;-71
2023/09/28 05:37:56;;;;;;;;;;;;;;;;;;5088882;28;20448;-71
2023/09/28 05:40:23;;;;;;;;;;;;;;;;;;5081445;28;19925;-71
2023/09/28 05:42:50;;;;;;;;;;;;;;;;;;5085956;28;19981;-71
2023/09/28 05:45:17;;;;;;;;;;;;;;;;;;5090728;28;19973;-71
2023/09/28 05:47:44;;;;;;;;;;;;;;;;;;5091383;28;20317;-71
2023/09/28 05:50:12;;;;;;;;;;;;;;;;;;5088958;28;19927;-71
2023/09/28 05:52:39;;;;;;;;;;;;;;;;;;5089948;28;19924;-71
2023/09/28 05:55:06;;;;;;;;;;;;;;;;;;5083955;28;19924;-71
2023/09/28 05:57:33;;;;;;;;;;;;;;;;;;5075339;28;19932;-71
2023/09/28 06:00:00;;;;;;;;;;;;;;;;;;5088584;28;20375;-72
2023/09/28 06:02:28;;;;;;;;;;;;;;;;;;5087974;28;19972;-73
2023/09/28 06:04:55;;;;;;;;;;;;;;;;;;5091083;28;20236;-74
2023/09/28 06:07:23;;;;;;;;;;;;;;;;;;5090589;28;19970;-72
2023/09/28 06:09:52;;;;;;;;;;;;;;;;;;5090182;28;19982;-75
2023/09/28 06:12:19;;;;;;;;;;;;;;;;;;5081217;28;19932;-73
2023/09/28 06:14:46;;;;;;;;;;;;;;;;;;5086110;28;19936;-74
2023/09/28 06:17:13;;;;;;;;;;;;;;;;;;5088139;28;19932;-74
2023/09/28 06:19:40;;;;;;;;;;;;;;;;;;5085826;28;20019;-75
2023/09/28 06:22:09;;;;;;;;;;;;;;;;;;5090062;28;19932;-76
2023/09/28 06:24:36;;;;;;;;;;;;;;;;;;5094645;28;19924;-76
2023/09/28 06:27:03;;;;;;;;;;;;;;;;;;5089613;28;19993;-74
2023/09/28 06:29:32;;;;;;;;;;;;;;;;;;5093041;28;19928;-75
2023/09/28 06:31:59;;;;;;;;;;;;;;;;;;5089122;28;19924;-75
2023/09/28 06:34:26;;;;;;;;;;;;;;;;;;5089092;28;19954;-75
2023/09/28 06:36:53;;;;;;;;;;;;;;;;;;5092819;28;20364;-75
2023/09/28 06:39:20;;;;;;;;;;;;;;;;;;5090111;28;20009;-75
2023/09/28 06:41:48;;;;;;;;;;;;;;;;;;5094528;28;19924;-75
2023/09/28 06:44:16;;;;;;;;;;;;;;;;;;5091341;28;19924;-74
2023/09/28 06:46:44;;;;;;;;;;;;;;;;;;5082908;28;19973;-75
2023/09/28 06:49:11;;;;;;;;;;;;;;;;;;5088009;28;19924;-75
2023/09/28 06:51:38;;;;;;;;;;;;;;;;;;5085139;28;20298;-75
2023/09/28 06:54:05;;;;;;;;;;;;;;;;;;5085391;28;20387;-73
2023/09/28 06:56:34;;;;;;;;;;;;;;;;;;5084317;28;19924;-73
2023/09/28 06:59:03;;;;;;;;;;;;;;;;;;5082269;28;20310;-74
2023/09/28 07:01:30;;;;;;;;;;;;;;;;;;5088468;28;19943;-72
2023/09/28 07:03:57;;;;;;;;;;;;;;;;;;5089046;28;20509;-73
2023/09/28 07:06:25;;;;;;;;;;;;;;;;;;5084179;28;20014;-73
2023/09/28 07:08:52;;;;;;;;;;;;;;;;;;5088009;28;19924;-73
2023/09/28 07:11:20;;;;;;;;;;;;;;;;;;5087669;28;20026;-73
2023/09/28 07:13:47;;;;;;;;;;;;;;;;;;5082468;28;20022;-72
2023/09/28 07:16:14;;;;;;;;;;;;;;;;;;5084516;28;19985;-71
2023/09/28 07:18:41;;;;;;;;;;;;;;;;;;5084894;28;19977;-71
2023/09/28 07:21:08;;;;;;;;;;;;;;;;;;5088725;28;20018;-72
2023/09/28 07:23:36;;;;;;;;;;;;;;;;;;5093185;28;20057;-73
2023/09/28 07:26:03;;;;;;;;;;;;;;;;;;5091517;28;20291;-72
2023/09/28 07:28:30;;;;;;;;;;;;;;;;;;5090860;28;19924;-71
2023/09/28 07:30:57;;;;;;;;;;;;;;;;;;5089777;28;19924;-71
2023/09/28 07:33:24;;;;;;;;;;;;;;;;;;5091112;28;20268;-72
2023/09/28 07:35:51;;;;;;;;;;;;;;;;;;5089113;28;19924;-71
2023/09/28 07:38:18;;;;;;;;;;;;;;;;;;5087327;28;19928;-71
2023/09/28 07:40:45;;;;;;;;;;;;;;;;;;5092530;28;19928;-72
2023/09/28 07:43:12;;;;;;;;;;;;;;;;;;5091366;28;20394;-71
2023/09/28 07:45:40;;;;;;;;;;;;;;;;;;5092797;28;19978;-72
2023/09/28 07:48:07;;;;;;;;;;;;;;;;;;5091288;28;19998;-72
2023/09/28 07:50:34;;;;;;;;;;;;;;;;;;5090637;28;19982;-71
2023/09/28 07:53:01;;;;;;;;;;;;;;;;;;5091409;28;19924;-72
2023/09/28 07:55:28;;;;;;;;;;;;;;;;;;5091232;28;19924;-71
2023/09/28 07:57:55;;;;;;;;;;;;;;;;;;5091481;28;19978;-71
2023/09/28 08:00:22;;;;;;;;;;;;;;;;;;5091200;28;19939;-72
2023/09/28 08:02:49;;;;;;;;;;;;;;;;;;5089794;28;19924;-72
2023/09/28 08:05:16;;;;;;;;;;;;;;;;;;5082750;28;19928;-72
2023/09/28 08:07:43;;;;;;;;;;;;;;;;;;5082268;28;19928;-73
2023/09/28 08:10:11;;;;;;;;;;;;;;;;;;5083520;28;19928;-73
2023/09/28 08:12:38;;;;;;;;;;;;;;;;;;5083808;28;20470;-71
2023/09/28 08:15:05;;;;;;;;;;;;;;;;;;5083891;28;19929;-72
2023/09/28 08:17:33;;;;;;;;;;;;;;;;;;5085298;28;19928;-73
2023/09/28 08:20:00;;;;;;;;;;;;;;;;;;5085192;28;19931;-73
2023/09/28 08:22:27;;;;;;;;;;;;;;;;;;5089474;28;19965;-72
2023/09/28 08:24:54;;;;;;;;;;;;;;;;;;5091114;28;20022;-72
2023/09/28 08:27:21;;;;;;;;;;;;;;;;;;5092850;28;20546;-73
2023/09/28 08:29:49;;;;;;;;;;;;;;;;;;5092776;28;19924;-72
2023/09/28 08:32:16;;;;;;;;;;;;;;;;;;5092826;28;19924;-73
2023/09/28 08:34:43;;;;;;;;;;;;;;;;;;5091970;28;19924;-73
2023/09/28 08:37:10;;;;;;;;;;;;;;;;;;5089954;28;19932;-73
2023/09/28 08:39:38;;;;;;;;;;;;;;;;;;5088188;28;20311;-72
2023/09/28 08:42:05;;;;;;;;;;;;;;;;;;5090586;28;20023;-73
2023/09/28 08:44:32;;;;;;;;;;;;;;;;;;5085650;28;19928;-72
2023/09/28 08:46:59;;;;;;;;;;;;;;;;;;5081107;28;20021;-73
2023/09/28 08:49:27;;;;;;;;;;;;;;;;;;5080285;28;20032;-74
2023/09/28 08:51:54;;;;;;;;;;;;;;;;;;5081252;28;20387;-73
2023/09/28 08:54:21;;;;;;;;;;;;;;;;;;5083414;28;19924;-74
2023/09/28 08:56:48;;;;;;;;;;;;;;;;;;5084429;28;19924;-73
2023/09/28 08:59:16;;;;;;;;;;;;;;;;;;5085072;28;19924;-72
2023/09/28 09:01:43;;;;;;;;;;;;;;;;;;5080911;28;19935;-73
2023/09/28 09:04:11;;;;;;;;;;;;;;;;;;5082563;28;19924;-72
2023/09/28 09:06:38;;;;;;;;;;;;;;;;;;5080623;28;19931;-70
2023/09/28 09:09:06;;;;;;;;;;;;;;;;;;5083463;28;19932;-71
2023/09/28 09:11:34;;;;;;;;;;;;;;;;;;5085391;28;19977;-69
2023/09/28 09:14:01;;;;;;;;;;;;;;;;;;5084583;28;20394;-70
2023/09/28 09:16:28;;;;;;;;;;;;;;;;;;5080786;28;19931;-70
2023/09/28 09:18:55;;;;;;;;;;;;;;;;;;5084660;28;20379;-72
2023/09/28 09:21:23;;;;;;;;;;;;;;;;;;5084378;28;20298;-70
2023/09/28 09:23:51;;;;;;;;;;;;;;;;;;5092522;28;19924;-70
2023/09/28 09:26:18;;;;;;;;;;;;;;;;;;5087504;28;19942;-70
2023/09/28 09:28:46;;;;;;;;;;;;;;;;;;5086497;28;19971;-71
2023/09/28 09:31:14;;;;;;;;;;;;;;;;;;5089006;28;19994;-70
2023/09/28 09:33:41;;;;;;;;;;;;;;;;;;5082189;28;19974;-70
2023/09/28 09:36:08;;;;;;;;;;;;;;;;;;5086658;28;19977;-70
2023/09/28 09:38:35;;;;;;;;;;;;;;;;;;5082581;28;20502;-70
2023/09/28 09:41:01;;;;;;;;;;;;;;;;;;5085775;28;20340;-70
2023/09/28 09:43:29;;;;;;;;;;;;;;;;;;5089381;28;19939;-70
2023/09/28 09:45:56;;;;;;;;;;;;;;;;;;5089949;28;19931;-71
2023/09/28 09:48:24;;;;;;;;;;;;;;;;;;5090540;28;19930;-70
2023/09/28 09:50:52;;;;;;;;;;;;;;;;;;5090665;28;19928;-72
2023/09/28 09:53:19;;;;;;;;;;;;;;;;;;5093685;28;19946;-71
2023/09/28 09:55:46;;;;;;;;;;;;;;;;;;5087510;28;20379;-71
2023/09/28 09:58:13;;;;;;;;;;;;;;;;;;5086735;28;20409;-71
2023/09/28 10:00:40;;;;;;;;;;;;;;;;;;5087287;28;19924;-71
2023/09/28 10:03:08;;;;;;;;;;;;;;;;;;5081256;28;20371;-72
2023/09/28 10:05:35;;;;;;;;;;;;;;;;;;5082856;28;19939;-72
2023/09/28 10:08:03;;;;;;;;;;;;;;;;;;5086214;28;19924;-71
2023/09/28 10:10:30;;;;;;;;;;;;;;;;;;5086132;28;19924;-72
2023/09/28 10:12:57;;;;;;;;;;;;;;;;;;5090523;28;19928;-72
2023/09/28 10:15:25;;;;;;;;;;;;;;;;;;5087459;28;20013;-70
2023/09/28 10:17:52;;;;;;;;;;;;;;;;;;5084768;28;20107;-70
2023/09/28 10:20:19;;;;;;;;;;;;;;;;;;5088538;28;20009;-71
2023/09/28 10:22:46;;;;;;;;;;;;;;;;;;5086937;28;19924;-70
2023/09/28 10:25:13;;;;;;;;;;;;;;;;;;5094084;28;19932;-70
2023/09/28 10:27:40;;;;;;;;;;;;;;;;;;5085364;28;19924;-70
2023/09/28 10:30:07;;;;;;;;;;;;;;;;;;5094328;28;19924;-71
2023/09/28 10:32:35;;;;;;;;;;;;;;;;;;5095345;28;20082;-69
2023/09/28 10:35:01;;;;;;;;;;;;;;;;;;5095117;28;20040;-68
2023/09/28 10:37:31;;;;;;;;;;;;;;;;;;5096880;28;20256;-69
2023/09/28 10:39:58;;;;;;;;;;;;;;;;;;5097463;28;19961;-69
2023/09/28 10:42:26;;;;;;;;;;;;;;;;;;5094972;28;19985;-68
2023/09/28 10:44:54;;;;;;;;;;;;;;;;;;5094028;28;19975;-69
2023/09/28 10:47:21;;;;;;;;;;;;;;;;;;5087638;28;19935;-69
2023/09/28 10:49:50;;;;;;;;;;;;;;;;;;5090880;28;20018;-69
2023/09/28 10:52:17;;;;;;;;;;;;;;;;;;5089885;28;20329;-69
2023/09/28 10:54:44;;;;;;;;;;;;;;;;;;5085183;28;20276;-69
2023/09/28 10:57:11;;;;;;;;;;;;;;;;;;5087945;28;19932;-69
2023/09/28 10:59:40;;;;;;;;;;;;;;;;;;5082337;28;20052;-70
2023/09/28 11:02:07;;;;;;;;;;;;;;;;;;5092483;28;19928;-70
2023/09/28 11:04:34;;;;;;;;;;;;;;;;;;5087419;28;19935;-70
2023/09/28 11:07:01;;;;;;;;;;;;;;;;;;5088399;28;20021;-69
2023/09/28 11:09:28;;;;;;;;;;;;;;;;;;5088332;28;20014;-69
2023/09/28 11:11:55;;;;;;;;;;;;;;;;;;5087018;28;20391;-70
2023/09/28 11:14:25;;;;;;;;;;;;;;;;;;5087129;28;19977;-70
2023/09/28 11:16:52;;;;;;;;;;;;;;;;;;5085725;28;20393;-71
2023/09/28 11:19:19;;;;;;;;;;;;;;;;;;5084858;28;20337;-71
2023/09/28 11:21:46;;;;;;;;;;;;;;;;;;5081907;28;19932;-69
2023/09/28 11:24:13;;;;;;;;;;;;;;;;;;5086038;28;20329;-70
2023/09/28 11:26:40;;;;;;;;;;;;;;;;;;5085491;28;20015;-70
2023/09/28 11:29:07;;;;;;;;;;;;;;;;;;5081581;28;19932;-70
2023/09/28 11:31:35;;;;;;;;;;;;;;;;;;5085424;28;19928;-70
2023/09/28 11:34:02;;;;;;;;;;;;;;;;;;5084588;28;20013;-69
2023/09/28 11:36:31;;;;;;;;;;;;;;;;;;5083392;28;19979;-69
2023/09/28 11:38:58;;;;;;;;;;;;;;;;;;5082296;28;19932;-69
2023/09/28 11:41:25;;;;;;;;;;;;;;;;;;5088461;28;20317;-69
2023/09/28 11:43:52;;;;;;;;;;;;;;;;;;5090269;28;19939;-69
2023/09/28 11:46:19;;;;;;;;;;;;;;;;;;5091408;28;20274;-70
2023/09/28 11:48:46;;;;;;;;;;;;;;;;;;5092596;28;19985;-69
2023/09/28 11:51:13;;;;;;;;;;;;;;;;;;5093160;28;20333;-70
2023/09/28 11:53:41;;;;;;;;;;;;;;;;;;5093088;28;19931;-69
2023/09/28 11:56:08;;;;;;;;;;;;;;;;;;5091251;28;20024;-69
2023/09/28 11:58:35;;;;;;;;;;;;;;;;;;5093156;28;19927;-69
2023/09/28 12:01:03;;;;;;;;;;;;;;;;;;5091657;28;19931;-69
2023/09/28 12:03:30;;;;;;;;;;;;;;;;;;5091084;28;19932;-69
2023/09/28 12:05:57;;;;;;;;;;;;;;;;;;5091880;28;20001;-69
2023/09/28 12:08:25;;;;;;;;;;;;;;;;;;5092490;28;19989;-69
2023/09/28 12:10:52;;;;;;;;;;;;;;;;;;5092025;28;19931;-70
2023/09/28 12:13:22;;;;;;;;;;;;;;;;;;5086542;28;19924;-70
2023/09/28 12:15:49;;;;;;;;;;;;;;;;;;5079749;28;20302;-71
2023/09/28 12:18:16;;;;;;;;;;;;;;;;;;5081592;28;19961;-71
2023/09/28 12:20:44;;;;;;;;;;;;;;;;;;5084981;28;19924;-70
2023/09/28 12:23:13;;;;;;;;;;;;;;;;;;5082848;28;19924;-70
2023/09/28 12:25:42;;;;;;;;;;;;;;;;;;5080533;28;19924;-70
2023/09/28 12:28:09;;;;;;;;;;;;;;;;;;5080967;28;19924;-70
2023/09/28 12:30:36;;;;;;;;;;;;;;;;;;5083961;28;19932;-70
2023/09/28 12:33:04;;;;;;;;;;;;;;;;;;5079971;28;20449;-70
2023/09/28 12:35:31;;;;;;;;;;;;;;;;;;5084446;28;19931;-70
2023/09/28 12:37:58;;;;;;;;;;;;;;;;;;5080424;28;19928;-70
2023/09/28 12:40:25;;;;;;;;;;;;;;;;;;5078277;28;19928;-70
2023/09/28 12:42:52;;;;;;;;;;;;;;;;;;5080427;28;19924;-70
2023/09/28 12:45:19;;;;;;;;;;;;;;;;;;5081758;28;19924;-70
2023/09/28 12:47:47;;;;;;;;;;;;;;;;;;5078376;28;19946;-70
2023/09/28 12:50:14;;;;;;;;;;;;;;;;;;5080897;28;19924;-70
2023/09/28 12:52:41;;;;;;;;;;;;;;;;;;5082635;28;20418;-70
2023/09/28 12:55:08;;;;;;;;;;;;;;;;;;5081813;28;19959;-70
2023/09/28 12:57:36;;;;;;;;;;;;;;;;;;5081486;28;20007;-73
2023/09/28 13:00:08;;;;;;;;;;;;;;;;;;5079246;28;19928;-73
2023/09/28 13:02:35;;;;;;;;;;;;;;;;;;5080281;28;19928;-71
2023/09/28 13:05:02;;;;;;;;;;;;;;;;;;5080257;28;19939;-71
2023/09/28 13:07:29;;;;;;;;;;;;;;;;;;5086087;28;19975;-73
2023/09/28 13:09:56;;;;;;;;;;;;;;;;;;5081941;28;19924;-72
2023/09/28 13:12:23;;;;;;;;;;;;;;;;;;5081970;28;19924;-72
2023/09/28 13:14:51;;;;;;;;;;;;;;;;;;5079966;28;19924;-72
2023/09/28 13:17:20;;;;;;;;;;;;;;;;;;5077784;28;19977;-72
2023/09/28 13:19:48;;;;;;;;;;;;;;;;;;5082617;28;20356;-72
2023/09/28 13:22:15;;;;;;;;;;;;;;;;;;5081942;28;19924;-70
2023/09/28 13:24:42;;;;;;;;;;;;;;;;;;5080873;28;20018;-70
2023/09/28 13:27:10;;;;;;;;;;;;;;;;;;5080925;28;19928;-69
2023/09/28 13:29:38;;;;;;;;;;;;;;;;;;5079822;28;20015;-68
2023/09/28 13:32:09;;;;;;;;;;;;;;;;;;5079790;28;19924;-72
2023/09/28 13:34:37;;;;;;;;;;;;;;;;;;5079677;28;19974;-73
2023/09/28 13:37:05;;;;;;;;;;;;;;;;;;5083145;28;19981;-73
2023/09/28 13:39:33;;;;;;;;;;;;;;;;;;5082594;28;20276;-73
2023/09/28 13:42:00;;;;;;;;;;;;;;;;;;5092342;28;19924;-74
2023/09/28 13:44:27;;;;;;;;;;;;;;;;;;5091751;28;20063;-73
2023/09/28 13:46:55;;;;;;;;;;;;;;;;;;5091786;28;19942;-73
2023/09/28 13:49:23;;;;;;;;;;;;;;;;;;5091336;28;19968;-73
2023/09/28 13:51:51;;;;;;;;;;;;;;;;;;5082692;28;19934;-71
2023/09/28 13:54:19;;;;;;;;;;;;;;;;;;5080806;28;19924;-72
2023/09/28 13:56:46;;;;;;;;;;;;;;;;;;5079510;28;19960;-72
2023/09/28 13:59:14;;;;;;;;;;;;;;;;;;5081257;28;19933;-73
2023/09/28 14:01:43;;;;;;;;;;;;;;;;;;5081583;28;19932;-72
2023/09/28 14:04:10;;;;;;;;;;;;;;;;;;5078398;28;19924;-73
2023/09/28 14:06:37;;;;;;;;;;;;;;;;;;5084820;28;19930;-72
2023/09/28 14:09:10;;;;;;;;;;;;;;;;;;5077158;28;19928;-72
2023/09/28 14:11:38;;;;;;;;;;;;;;;;;;5077680;28;19932;-72
2023/09/28 14:14:05;;;;;;;;;;;;;;;;;;5077846;28;19924;-72
2023/09/28 14:16:32;;;;;;;;;;;;;;;;;;5083681;28;20001;-74
2023/09/28 14:19:00;;;;;;;;;;;;;;;;;;5080140;28;19939;-72
2023/09/28 14:21:27;;;;;;;;;;;;;;;;;;5077562;28;19924;-70
2023/09/28 14:23:55;;;;;;;;;;;;;;;;;;5081420;28;19932;-72
2023/09/28 14:26:22;;;;;;;;;;;;;;;;;;5075783;28;20665;-73
2023/09/28 14:28:50;;;;;;;;;;;;;;;;;;5075179;28;19924;-73
2023/09/28 14:31:18;;;;;;;;;;;;;;;;;;5077972;28;19924;-75
2023/09/28 14:33:45;;;;;;;;;;;;;;;;;;5075603;28;19939;-75
2023/09/28 14:36:12;;;;;;;;;;;;;;;;;;5073191;28;19935;-73
2023/09/28 14:38:39;;;;;;;;;;;;;;;;;;5079756;28;19935;-72
2023/09/28 14:41:06;;;;;;;;;;;;;;;;;;5089232;28;20337;-71
2023/09/28 14:43:33;;;;;;;;;;;;;;;;;;5084918;28;20244;-73
2023/09/28 14:46:00;;;;;;;;;;;;;;;;;;5092634;28;19924;-73
2023/09/28 14:48:27;;;;;;;;;;;;;;;;;;5085164;28;19924;-74
2023/09/28 14:50:54;;;;;;;;;;;;;;;;;;5086433;28;19924;-72
2023/09/28 14:53:21;;;;;;;;;;;;;;;;;;5085147;28;19924;-73
2023/09/28 14:55:48;;;;;;;;;;;;;;;;;;5084813;28;19924;-74
2023/09/28 14:58:15;;;;;;;;;;;;;;;;;;5089259;28;19947;-73
2023/09/28 15:00:43;;;;;;;;;;;;;;;;;;5084059;28;19932;-74
2023/09/28 15:03:10;;;;;;;;;;;;;;;;;;5089398;28;19924;-72
2023/09/28 15:05:38;;;;;;;;;;;;;;;;;;5087991;28;19928;-74
2023/09/28 15:08:05;;;;;;;;;;;;;;;;;;5082391;28;20407;-73
2023/09/28 15:10:32;;;;;;;;;;;;;;;;;;5084010;28;19924;-73
2023/09/28 15:12:59;;;;;;;;;;;;;;;;;;5088355;28;20468;-73
2023/09/28 15:15:26;;;;;;;;;;;;;;;;;;5085314;28;19932;-73
2023/09/28 15:17:53;;;;;;;;;;;;;;;;;;5082533;28;19932;-74
2023/09/28 15:20:20;;;;;;;;;;;;;;;;;;5077856;28;20008;-75
2023/09/28 15:22:48;;;;;;;;;;;;;;;;;;5083021;28;19924;-73
2023/09/28 15:25:15;;;;;;;;;;;;;;;;;;5082052;28;19929;-73
2023/09/28 15:27:42;;;;;;;;;;;;;;;;;;5083062;28;20005;-74
2023/09/28 15:30:10;;;;;;;;;;;;;;;;;;5081547;28;19932;-73
2023/09/28 15:32:37;;;;;;;;;;;;;;;;;;5077615;28;19933;-73
2023/09/28 15:35:04;;;;;;;;;;;;;;;;;;5079827;28;19932;-72
2023/09/28 15:37:31;;;;;;;;;;;;;;;;;;5083459;28;19928;-74
2023/09/28 15:39:58;;;;;;;;;;;;;;;;;;5083378;28;19925;-73
2023/09/28 15:42:26;;;;;;;;;;;;;;;;;;5083143;28;19930;-73
2023/09/28 15:44:53;;;;;;;;;;;;;;;;;;5081057;28;19928;-74
2023/09/28 15:47:20;;;;;;;;;;;;;;;;;;5085082;28;19938;-74
2023/09/28 15:49:48;;;;;;;;;;;;;;;;;;5079046;28;19925;-74
2023/09/28 15:52:15;;;;;;;;;;;;;;;;;;5077818;28;19931;-73
2023/09/28 15:54:42;;;;;;;;;;;;;;;;;;5082300;28;20476;-74
2023/09/28 15:57:09;;;;;;;;;;;;;;;;;;5078616;28;19935;-74
2023/09/28 15:59:37;;;;;;;;;;;;;;;;;;5078213;28;19977;-75
2023/09/28 16:02:04;;;;;;;;;;;;;;;;;;5083767;28;19974;-74
2023/09/28 16:04:31;;;;;;;;;;;;;;;;;;5081367;28;19928;-74
2023/09/28 16:06:58;;;;;;;;;;;;;;;;;;5081812;28;19924;-73
2023/09/28 16:09:25;;;;;;;;;;;;;;;;;;5082149;28;19924;-75
2023/09/28 16:11:52;;;;;;;;;;;;;;;;;;5072694;28;20355;-73
2023/09/28 16:14:19;;;;;;;;;;;;;;;;;;5078110;28;20025;-74
2023/09/28 16:16:46;;;;;;;;;;;;;;;;;;5082340;28;19928;-74
2023/09/28 16:19:13;;;;;;;;;;;;;;;;;;5076110;28;19993;-75
2023/09/28 16:21:40;;;;;;;;;;;;;;;;;;5080661;28;20295;-74
2023/09/28 16:24:08;;;;;;;;;;;;;;;;;;5080409;28;19928;-74
2023/09/28 16:26:35;;;;;;;;;;;;;;;;;;5077074;28;19939;-75
2023/09/28 16:29:02;;;;;;;;;;;;;;;;;;5073928;28;20387;-75
2023/09/28 16:31:29;;;;;;;;;;;;;;;;;;5079857;28;20422;-75
2023/09/28 16:33:56;;;;;;;;;;;;;;;;;;5075575;28;19963;-74
2023/09/28 16:36:23;;;;;;;;;;;;;;;;;;5082979;28;19936;-73
2023/09/28 16:38:50;;;;;;;;;;;;;;;;;;5081722;28;20366;-73
2023/09/28 16:41:17;;;;;;;;;;;;;;;;;;5088406;28;19931;-72
2023/09/28 16:43:44;;;;;;;;;;;;;;;;;;5075563;28;19928;-73
2023/09/28 16:46:11;;;;;;;;;;;;;;;;;;5087331;28;19931;-73